createdAt,value
2023-03-18T00:00:41.751Z,66.78
2023-03-18T00:01:41.746Z,66.47
2023-03-18T00:02:41.743Z,66.47
2023-03-18T00:03:41.777Z,66.68
2023-03-18T00:04:41.701Z,66.68
2023-03-18T00:05:41.681Z,66.68
2023-03-18T00:06:41.675Z,66.47
2023-03-18T00:07:41.662Z,66.47
2023-03-18T00:08:41.653Z,66.68
2023-03-18T00:09:41.652Z,66.78
2023-03-18T00:10:41.622Z,66.68
2023-03-18T00:11:41.612Z,66.58
2023-03-18T00:12:41.602Z,66.47
2023-03-18T00:13:41.621Z,66.47
2023-03-18T00:14:41.573Z,66.14
2023-03-18T00:15:41.648Z,65.73
2023-03-18T00:16:41.551Z,65.73
2023-03-18T00:17:41.543Z,65.53
2023-03-18T00:18:41.532Z,65.63
2023-03-18T00:19:41.551Z,65.53
2023-03-18T00:20:41.507Z,65.33
2023-03-18T00:21:41.521Z,65.02
2023-03-18T00:22:41.481Z,65.02
2023-03-18T00:23:41.481Z,64.72
2023-03-18T00:24:41.466Z,64.58
2023-03-18T00:25:41.453Z,64.61
2023-03-18T00:26:41.445Z,64.48
2023-03-18T00:27:41.458Z,64.38
2023-03-18T00:28:41.414Z,64.38
2023-03-18T00:29:41.406Z,64.28
2023-03-18T00:30:41.401Z,64.07
2023-03-18T00:31:41.422Z,63.87
2023-03-18T00:32:41.590Z,63.87
2023-03-18T00:33:41.380Z,63.74
2023-03-18T00:34:41.341Z,63.97
2023-03-18T00:35:41.378Z,63.77
2023-03-18T00:36:41.322Z,63.87
2023-03-18T00:37:41.314Z,63.97
2023-03-18T00:38:41.326Z,63.97
2023-03-18T00:39:41.292Z,64.18
2023-03-18T00:40:41.274Z,64.07
2023-03-18T00:41:41.270Z,64.72
2023-03-18T00:42:41.256Z,64.79
2023-03-18T00:43:41.242Z,64.48
2023-03-18T00:44:41.262Z,64.38
2023-03-18T00:45:41.249Z,64.48
2023-03-18T00:46:41.255Z,64.55
2023-03-18T00:47:41.203Z,64.65
2023-03-18T00:48:41.183Z,64.69
2023-03-18T00:49:41.175Z,64.79
2023-03-18T00:50:41.174Z,65.19
2023-03-18T00:51:41.153Z,64.99
2023-03-18T00:52:41.146Z,64.69
2023-03-18T00:53:41.133Z,65.09
2023-03-18T00:54:41.130Z,64.86
2023-03-18T00:55:41.133Z,64.86
2023-03-18T00:56:41.097Z,65.36
2023-03-18T00:57:41.084Z,65.67
2023-03-18T00:58:41.137Z,66.00
2023-03-18T00:59:41.063Z,65.67
2023-03-18T01:00:41.059Z,66.18
2023-03-18T01:01:41.112Z,66.49
2023-03-18T01:02:41.023Z,66.79
2023-03-18T01:03:41.016Z,67.40
2023-03-18T01:04:41.013Z,67.74
2023-03-18T01:05:40.995Z,67.43
2023-03-18T01:06:40.994Z,67.74
2023-03-18T01:07:40.964Z,68.75
2023-03-18T01:08:40.956Z,69.46
2023-03-18T01:09:40.960Z,69.87
2023-03-18T01:10:40.935Z,69.87
2023-03-18T01:11:40.941Z,70.18
2023-03-18T01:12:40.934Z,70.48
2023-03-18T01:13:40.919Z,70.72
2023-03-18T01:14:40.887Z,71.12
2023-03-18T01:15:40.878Z,71.53
2023-03-18T01:16:40.908Z,71.73
2023-03-18T01:17:40.859Z,72.34
2023-03-18T01:18:40.854Z,71.73
2023-03-18T01:19:40.825Z,72.04
2023-03-18T01:20:40.816Z,72.45
2023-03-18T01:21:40.826Z,72.96
2023-03-18T01:22:40.797Z,73.36
2023-03-18T01:23:40.813Z,73.87
2023-03-18T01:24:40.783Z,72.69
2023-03-18T01:25:40.768Z,72.48
2023-03-18T01:26:40.748Z,73.60
2023-03-18T01:27:40.775Z,74.55
2023-03-18T01:28:40.728Z,75.06
2023-03-18T01:29:40.736Z,75.57
2023-03-18T01:30:40.705Z,75.98
2023-03-18T01:31:40.727Z,76.18
2023-03-18T01:32:40.689Z,76.39
2023-03-18T01:33:40.677Z,76.73
2023-03-18T01:34:40.746Z,76.53
2023-03-18T01:35:40.675Z,76.62
2023-03-18T01:36:40.637Z,76.93
2023-03-18T01:37:40.624Z,77.37
2023-03-18T01:38:40.616Z,77.68
2023-03-18T01:39:40.600Z,77.78
2023-03-18T01:40:40.629Z,77.78
2023-03-18T01:41:40.583Z,78.09
2023-03-18T01:42:40.566Z,78.39
2023-03-18T01:43:40.563Z,78.70
2023-03-18T01:44:40.538Z,78.91
2023-03-18T01:45:40.575Z,79.25
2023-03-18T01:46:40.596Z,79.55
2023-03-18T01:47:40.512Z,79.45
2023-03-18T01:48:40.493Z,79.32
2023-03-18T01:49:40.481Z,79.32
2023-03-18T01:50:40.462Z,79.32
2023-03-18T01:51:40.463Z,79.32
2023-03-18T01:52:40.463Z,79.52
2023-03-18T01:53:40.442Z,79.75
2023-03-18T01:54:40.419Z,79.86
2023-03-18T01:55:40.411Z,79.96
2023-03-18T01:56:40.406Z,80.37
2023-03-18T01:57:40.449Z,80.57
2023-03-18T01:58:40.384Z,80.47
2023-03-18T01:59:40.370Z,80.68
2023-03-18T02:00:40.360Z,80.98
2023-03-18T02:01:40.344Z,81.43
2023-03-18T02:02:40.333Z,81.63
2023-03-18T02:03:40.372Z,81.84
2023-03-18T02:04:40.311Z,81.73
2023-03-18T02:05:40.310Z,81.59
2023-03-18T02:06:40.290Z,81.53
2023-03-18T02:07:40.294Z,81.80
2023-03-18T02:08:40.287Z,81.84
2023-03-18T02:09:40.271Z,82.14
2023-03-18T02:10:40.242Z,82.45
2023-03-18T02:11:40.234Z,82.65
2023-03-18T02:12:40.214Z,82.75
2023-03-18T02:13:40.221Z,82.45
2023-03-18T02:14:40.215Z,82.24
2023-03-18T02:15:40.197Z,82.55
2023-03-18T02:16:40.201Z,82.65
2023-03-18T02:17:40.164Z,83.16
2023-03-18T02:18:40.155Z,83.06
2023-03-18T02:19:40.151Z,83.47
2023-03-18T02:20:40.154Z,83.47
2023-03-18T02:21:40.217Z,83.51
2023-03-18T02:22:40.110Z,83.57
2023-03-18T02:23:40.164Z,83.67
2023-03-18T02:24:47.132Z,83.37
2023-03-18T02:25:40.083Z,83.30
2023-03-18T02:26:40.088Z,83.71
2023-03-18T02:27:40.071Z,83.71
2023-03-18T02:28:40.040Z,84.16
2023-03-18T02:29:40.032Z,84.22
2023-03-18T02:30:40.073Z,83.92
2023-03-18T02:31:40.021Z,83.92
2023-03-18T02:32:40.085Z,84.12
2023-03-18T02:33:39.979Z,84.01
2023-03-18T02:34:39.978Z,84.12
2023-03-18T02:35:40.028Z,84.12
2023-03-18T02:36:39.951Z,84.22
2023-03-18T02:37:39.941Z,84.01
2023-03-18T02:38:39.950Z,84.12
2023-03-18T02:39:39.920Z,84.01
2023-03-18T02:40:39.900Z,83.81
2023-03-18T02:41:39.893Z,83.71
2023-03-18T02:42:39.880Z,84.01
2023-03-18T02:43:39.869Z,84.06
2023-03-18T02:44:39.881Z,84.57
2023-03-18T02:45:39.860Z,84.98
2023-03-18T02:46:39.832Z,85.28
2023-03-18T02:47:39.822Z,85.69
2023-03-18T02:48:39.811Z,85.38
2023-03-18T02:49:39.803Z,85.14
2023-03-18T02:50:41.879Z,84.74
2023-03-18T02:51:39.784Z,84.63
2023-03-18T02:52:39.777Z,84.67
2023-03-18T02:53:39.774Z,85.28
2023-03-18T02:54:39.743Z,85.18
2023-03-18T02:55:39.732Z,85.08
2023-03-18T02:56:39.810Z,85.38
2023-03-18T02:57:39.719Z,85.79
2023-03-18T02:58:39.703Z,85.59
2023-03-18T02:59:39.723Z,85.49
2023-03-18T03:00:39.686Z,85.28
2023-03-18T03:01:39.727Z,84.98
2023-03-18T03:02:39.765Z,85.28
2023-03-18T03:03:39.694Z,85.28
2023-03-18T03:04:39.633Z,85.79
2023-03-18T03:05:39.631Z,85.59
2023-03-18T03:06:39.617Z,85.59
2023-03-18T03:07:39.623Z,85.79
2023-03-18T03:08:39.678Z,86.04
2023-03-18T03:09:39.572Z,86.24
2023-03-18T03:10:39.565Z,86.55
2023-03-18T03:11:39.555Z,86.65
2023-03-18T03:12:39.543Z,87.51
2023-03-18T03:13:39.553Z,87.57
2023-03-18T03:14:39.518Z,87.37
2023-03-18T03:15:39.529Z,87.06
2023-03-18T03:16:39.499Z,87.16
2023-03-18T03:17:39.484Z,87.16
2023-03-18T03:18:39.474Z,86.76
2023-03-18T03:19:39.474Z,87.06
2023-03-18T03:20:39.456Z,86.85
2023-03-18T03:21:39.444Z,86.85
2023-03-18T03:22:39.432Z,86.96
2023-03-18T03:23:39.445Z,87.06
2023-03-18T03:24:39.434Z,86.96
2023-03-18T03:25:39.395Z,86.20
2023-03-18T03:26:39.384Z,86.20
2023-03-18T03:27:39.374Z,86.10
2023-03-18T03:28:39.362Z,86.55
2023-03-18T03:29:39.358Z,86.30
2023-03-18T03:30:39.365Z,86.00
2023-03-18T03:31:39.346Z,86.00
2023-03-18T03:32:39.349Z,85.89
2023-03-18T03:33:39.314Z,85.89
2023-03-18T03:34:39.292Z,85.38
2023-03-18T03:35:39.308Z,85.89
2023-03-18T03:36:39.294Z,86.00
2023-03-18T03:37:39.264Z,86.10
2023-03-18T03:38:39.244Z,85.89
2023-03-18T03:39:39.237Z,85.79
2023-03-18T03:40:39.224Z,85.83
2023-03-18T03:41:39.214Z,86.24
2023-03-18T03:42:39.217Z,86.96
2023-03-18T03:43:39.201Z,87.06
2023-03-18T03:44:39.187Z,87.00
2023-03-18T03:45:39.174Z,87.41
2023-03-18T03:46:39.193Z,87.47
2023-03-18T03:47:39.174Z,87.10
2023-03-18T03:48:39.135Z,87.30
2023-03-18T03:49:39.136Z,87.41
2023-03-18T03:50:39.125Z,87.47
2023-03-18T03:51:39.114Z,87.51
2023-03-18T03:52:39.084Z,87.47
2023-03-18T03:53:39.115Z,87.06
2023-03-18T03:54:39.064Z,86.85
2023-03-18T03:55:39.063Z,86.96
2023-03-18T03:56:39.050Z,87.30
2023-03-18T03:57:39.037Z,87.51
2023-03-18T03:58:39.022Z,87.61
2023-03-18T03:59:39.155Z,87.88
2023-03-18T04:00:39.012Z,87.26
2023-03-18T04:01:39.002Z,87.30
2023-03-18T04:02:38.995Z,87.26
2023-03-18T04:03:38.963Z,87.47
2023-03-18T04:04:38.958Z,87.16
2023-03-18T04:05:38.971Z,87.26
2023-03-18T04:06:38.932Z,87.37
2023-03-18T04:07:38.926Z,87.06
2023-03-18T04:08:38.912Z,87.41
2023-03-18T04:09:38.903Z,87.67
2023-03-18T04:10:38.892Z,87.26
2023-03-18T04:11:38.939Z,86.85
2023-03-18T04:12:38.868Z,86.44
2023-03-18T04:13:38.852Z,86.55
2023-03-18T04:14:38.844Z,86.35
2023-03-18T04:15:38.858Z,86.24
2023-03-18T04:16:38.832Z,86.00
2023-03-18T04:17:38.832Z,85.94
2023-03-18T04:18:38.793Z,86.35
2023-03-18T04:19:38.781Z,86.76
2023-03-18T04:20:38.814Z,86.65
2023-03-18T04:21:38.763Z,86.14
2023-03-18T04:22:38.761Z,86.04
2023-03-18T04:23:38.766Z,86.24
2023-03-18T04:24:38.731Z,86.44
2023-03-18T04:25:38.713Z,86.04
2023-03-18T04:26:38.714Z,86.35
2023-03-18T04:27:38.693Z,86.55
2023-03-18T04:28:38.683Z,86.38
2023-03-18T04:29:38.692Z,87.20
2023-03-18T04:30:38.664Z,87.30
2023-03-18T04:31:38.677Z,87.41
2023-03-18T04:32:38.661Z,87.30
2023-03-18T04:33:38.622Z,86.90
2023-03-18T04:34:38.624Z,87.10
2023-03-18T04:35:38.630Z,87.76
2023-03-18T04:36:38.605Z,87.76
2023-03-18T04:37:38.581Z,88.37
2023-03-18T04:38:38.576Z,88.17
2023-03-18T04:39:38.561Z,88.57
2023-03-18T04:40:38.592Z,88.68
2023-03-18T04:41:38.551Z,88.06
2023-03-18T04:42:38.521Z,88.26
2023-03-18T04:43:38.510Z,88.02
2023-03-18T04:44:38.501Z,87.51
2023-03-18T04:45:38.489Z,87.00
2023-03-18T04:46:38.520Z,87.45
2023-03-18T04:47:38.470Z,87.96
2023-03-18T04:48:38.461Z,88.23
2023-03-18T04:49:38.442Z,87.71
2023-03-18T04:50:38.441Z,87.96
2023-03-18T04:51:38.418Z,88.17
2023-03-18T04:52:38.423Z,88.23
2023-03-18T04:53:38.397Z,88.12
2023-03-18T04:54:38.389Z,87.92
2023-03-18T04:55:38.371Z,88.23
2023-03-18T04:56:38.368Z,88.12
2023-03-18T04:57:38.370Z,88.78
2023-03-18T04:58:38.352Z,88.68
2023-03-18T04:59:38.381Z,88.98
2023-03-18T05:00:38.532Z,88.98
2023-03-18T05:01:38.339Z,88.64
2023-03-18T05:02:38.339Z,88.26
2023-03-18T05:03:38.425Z,88.53
2023-03-18T05:04:38.377Z,88.18
2023-03-18T05:05:38.900Z,87.82
2023-03-18T05:06:38.250Z,88.12
2023-03-18T05:07:38.243Z,87.92
2023-03-18T05:08:38.232Z,87.92
2023-03-18T05:09:38.239Z,87.92
2023-03-18T05:10:38.220Z,87.57
2023-03-18T05:11:38.208Z,87.16
2023-03-18T05:12:38.185Z,87.06
2023-03-18T05:13:38.170Z,87.06
2023-03-18T05:14:38.165Z,86.65
2023-03-18T05:15:38.172Z,86.55
2023-03-18T05:16:38.201Z,86.65
2023-03-18T05:17:38.121Z,86.76
2023-03-18T05:18:38.121Z,87.10
2023-03-18T05:19:38.099Z,87.30
2023-03-18T05:20:38.110Z,88.23
2023-03-18T05:21:38.082Z,87.82
2023-03-18T05:22:38.107Z,87.82
2023-03-18T05:23:38.058Z,88.12
2023-03-18T05:24:38.049Z,87.67
2023-03-18T05:25:38.042Z,87.06
2023-03-18T05:26:38.067Z,87.16
2023-03-18T05:27:38.032Z,86.96
2023-03-18T05:28:38.003Z,86.76
2023-03-18T05:29:37.991Z,86.14
2023-03-18T05:30:37.980Z,87.00
2023-03-18T05:31:37.987Z,87.00
2023-03-18T05:32:38.079Z,87.16
2023-03-18T05:33:37.940Z,86.85
2023-03-18T05:34:37.942Z,86.35
2023-03-18T05:35:37.945Z,86.85
2023-03-18T05:36:37.921Z,86.65
2023-03-18T05:37:37.899Z,86.76
2023-03-18T05:38:37.914Z,86.55
2023-03-18T05:39:37.876Z,87.41
2023-03-18T05:40:37.896Z,87.47
2023-03-18T05:41:37.858Z,87.57
2023-03-18T05:42:49.394Z,87.47
2023-03-18T05:43:38.860Z,87.67
2023-03-18T05:44:37.820Z,86.61
2023-03-18T05:45:40.068Z,86.20
2023-03-18T05:46:37.807Z,85.75
2023-03-18T05:47:37.788Z,85.14
2023-03-18T05:48:37.778Z,85.24
2023-03-18T05:49:37.786Z,85.14
2023-03-18T05:50:37.753Z,85.04
2023-03-18T05:51:37.737Z,84.63
2023-03-18T05:52:37.726Z,84.59
2023-03-18T05:53:37.716Z,84.39
2023-03-18T05:54:37.713Z,84.28
2023-03-18T05:55:37.724Z,84.39
2023-03-18T05:56:37.688Z,84.53
2023-03-18T05:57:37.679Z,84.83
2023-03-18T05:58:37.662Z,84.80
2023-03-18T05:59:37.650Z,84.28
2023-03-18T06:00:37.675Z,84.39
2023-03-18T06:01:37.642Z,84.42
2023-03-18T06:02:37.723Z,84.74
2023-03-18T06:03:37.623Z,84.59
2023-03-18T06:04:37.599Z,84.83
2023-03-18T06:05:37.587Z,85.24
2023-03-18T06:06:37.601Z,85.35
2023-03-18T06:07:37.561Z,85.04
2023-03-18T06:08:37.550Z,84.80
2023-03-18T06:09:37.538Z,84.53
2023-03-18T06:10:37.540Z,85.35
2023-03-18T06:11:37.532Z,85.00
2023-03-18T06:12:37.541Z,84.69
2023-03-18T06:13:37.491Z,84.04
2023-03-18T06:14:37.479Z,83.73
2023-03-18T06:15:37.472Z,83.53
2023-03-18T06:16:37.531Z,83.43
2023-03-18T06:17:37.451Z,83.12
2023-03-18T06:18:37.486Z,82.71
2023-03-18T06:19:37.441Z,82.88
2023-03-18T06:20:37.423Z,82.68
2023-03-18T06:21:37.414Z,82.47
2023-03-18T06:22:37.394Z,82.47
2023-03-18T06:23:37.466Z,82.21
2023-03-18T06:24:37.392Z,82.92
2023-03-18T06:25:37.362Z,82.71
2023-03-18T06:26:37.342Z,82.86
2023-03-18T06:27:37.340Z,83.02
2023-03-18T06:28:37.350Z,82.82
2023-03-18T06:29:37.323Z,83.16
2023-03-18T06:30:37.324Z,83.37
2023-03-18T06:31:37.291Z,83.57
2023-03-18T06:32:37.324Z,83.71
2023-03-18T06:33:37.282Z,84.33
2023-03-18T06:34:37.253Z,84.01
2023-03-18T06:35:37.283Z,83.98
2023-03-18T06:36:37.264Z,83.47
2023-03-18T06:37:37.230Z,83.06
2023-03-18T06:38:37.266Z,83.06
2023-03-18T06:39:37.195Z,83.16
2023-03-18T06:40:37.184Z,83.51
2023-03-18T06:41:37.173Z,84.42
2023-03-18T06:42:37.193Z,83.98
2023-03-18T06:43:37.165Z,83.57
2023-03-18T06:44:37.148Z,83.06
2023-03-18T06:45:37.130Z,82.75
2023-03-18T06:46:37.211Z,82.86
2023-03-18T06:47:37.103Z,82.96
2023-03-18T06:48:37.140Z,83.16
2023-03-18T06:49:37.098Z,83.37
2023-03-18T06:50:37.081Z,83.37
2023-03-18T06:51:37.063Z,83.51
2023-03-18T06:52:37.053Z,84.47
2023-03-18T06:53:37.035Z,85.18
2023-03-18T06:54:37.058Z,84.98
2023-03-18T06:55:37.013Z,84.42
2023-03-18T06:56:37.011Z,84.63
2023-03-18T06:57:36.997Z,84.53
2023-03-18T06:58:36.983Z,83.87
2023-03-18T06:59:37.019Z,83.78
2023-03-18T07:00:36.973Z,83.73
2023-03-18T07:01:36.973Z,82.50
2023-03-18T07:02:39.417Z,80.66
2023-03-18T07:03:36.940Z,79.88
2023-03-18T07:04:36.957Z,78.55
2023-03-18T07:05:36.924Z,76.71
2023-03-18T07:06:36.881Z,73.29
2023-03-18T07:07:36.872Z,70.15
2023-03-18T07:08:36.872Z,68.61
2023-03-18T07:09:36.850Z,66.73
2023-03-18T07:10:36.862Z,64.32
2023-03-18T07:11:36.843Z,61.77
2023-03-18T07:12:36.828Z,60.74
2023-03-18T07:13:36.814Z,60.44
2023-03-18T07:14:36.801Z,60.63
2023-03-18T07:15:36.846Z,62.49
2023-03-18T07:16:36.794Z,64.50
2023-03-18T07:17:36.771Z,65.67
2023-03-18T07:18:36.770Z,67.93
2023-03-18T07:19:36.742Z,69.84
2023-03-18T07:20:36.741Z,71.09
2023-03-18T07:21:36.715Z,72.38
2023-03-18T07:22:36.731Z,73.87
2023-03-18T07:23:36.692Z,74.48
2023-03-18T07:24:36.703Z,74.82
2023-03-18T07:25:36.790Z,75.70
2023-03-18T07:26:36.664Z,74.41
2023-03-18T07:27:36.649Z,73.16
2023-03-18T07:28:36.672Z,69.92
2023-03-18T07:29:36.644Z,67.53
2023-03-18T07:30:36.614Z,64.84
2023-03-18T07:31:36.615Z,64.55
2023-03-18T07:32:36.621Z,62.15
2023-03-18T07:33:36.604Z,60.41
2023-03-18T07:34:36.585Z,58.94
2023-03-18T07:35:36.577Z,59.08
2023-03-18T07:36:36.559Z,59.67
2023-03-18T07:37:36.525Z,59.91
2023-03-18T07:38:36.514Z,60.49
2023-03-18T07:39:36.541Z,63.39
2023-03-18T07:40:36.506Z,66.14
2023-03-18T07:41:37.901Z,65.98
2023-03-18T07:42:36.486Z,65.68
2023-03-18T07:43:36.464Z,63.84
2023-03-18T07:44:36.454Z,62.66
2023-03-18T07:45:36.464Z,62.87
2023-03-18T07:46:36.446Z,62.46
2023-03-18T07:47:36.433Z,61.83
2023-03-18T07:48:36.413Z,62.91
2023-03-18T07:49:36.394Z,61.43
2023-03-18T07:50:36.386Z,62.81
2023-03-18T07:51:36.394Z,62.54
2023-03-18T07:52:36.364Z,61.77
2023-03-18T07:53:36.353Z,60.51
2023-03-18T07:54:36.349Z,59.33
2023-03-18T07:55:36.335Z,60.08
2023-03-18T07:56:36.316Z,60.08
2023-03-18T07:57:36.323Z,58.94
2023-03-18T07:58:36.296Z,59.98
2023-03-18T07:59:36.382Z,59.67
2023-03-18T08:00:36.275Z,59.30
2023-03-18T08:01:36.269Z,59.98
2023-03-18T08:02:36.440Z,59.25
2023-03-18T08:03:36.304Z,58.86
2023-03-18T08:04:36.251Z,56.15
2023-03-18T08:05:36.207Z,56.73
2023-03-18T08:06:36.197Z,56.10
2023-03-18T08:07:36.188Z,56.15
2023-03-18T08:08:36.207Z,55.05
2023-03-18T08:09:36.256Z,55.07
2023-03-18T08:10:36.277Z,56.05
2023-03-18T08:11:36.138Z,58.01
2023-03-18T08:12:51.682Z,58.18
2023-03-18T08:13:37.137Z,57.79
2023-03-18T08:14:36.136Z,57.33
2023-03-18T08:15:36.099Z,56.85
2023-03-18T08:16:36.149Z,55.09
2023-03-18T08:17:36.068Z,54.10
2023-03-18T08:18:36.069Z,54.10
2023-03-18T08:19:36.091Z,53.59
2023-03-18T08:20:36.043Z,53.59
2023-03-18T08:21:36.049Z,53.64
2023-03-18T08:22:36.019Z,54.64
2023-03-18T08:23:36.009Z,55.27
2023-03-18T08:24:35.991Z,56.56
2023-03-18T08:25:36.125Z,55.73
2023-03-18T08:26:36.017Z,55.80
2023-03-18T08:27:35.961Z,55.63
2023-03-18T08:28:35.954Z,55.95
2023-03-18T08:29:35.931Z,56.57
2023-03-18T08:30:35.926Z,54.07
2023-03-18T08:31:36.326Z,54.07
2023-03-18T08:32:35.921Z,54.35
2023-03-18T08:33:35.893Z,53.19
2023-03-18T08:34:35.897Z,52.52
2023-03-18T08:35:35.993Z,50.40
2023-03-18T08:36:35.853Z,50.24
2023-03-18T08:37:35.871Z,50.22
2023-03-18T08:38:35.834Z,50.02
2023-03-18T08:39:35.824Z,51.50
2023-03-18T08:40:35.820Z,51.87
2023-03-18T08:41:35.808Z,50.74
2023-03-18T08:42:35.799Z,49.90
2023-03-18T08:43:37.963Z,49.95
2023-03-18T08:44:35.765Z,49.93
2023-03-18T08:45:35.957Z,47.81
2023-03-18T08:46:42.808Z,46.30
2023-03-18T08:47:35.737Z,47.17
2023-03-18T08:48:35.828Z,46.20
2023-03-18T08:49:35.745Z,46.39
2023-03-18T08:50:35.715Z,48.75
2023-03-18T08:51:35.707Z,49.35
2023-03-18T08:52:35.685Z,47.06
2023-03-18T08:53:35.667Z,48.03
2023-03-18T08:54:35.678Z,46.78
2023-03-18T08:55:35.928Z,48.02
2023-03-18T08:56:35.629Z,48.90
2023-03-18T08:57:35.620Z,49.65
2023-03-18T08:58:35.612Z,47.16
2023-03-18T08:59:35.724Z,47.41
2023-03-18T09:00:35.652Z,45.79
2023-03-18T09:01:35.640Z,46.30
2023-03-18T09:02:35.642Z,45.60
2023-03-18T09:03:35.579Z,45.94
2023-03-18T09:04:35.548Z,47.38
2023-03-18T09:05:35.770Z,46.98
2023-03-18T09:06:35.524Z,47.20
2023-03-18T09:07:35.517Z,47.48
2023-03-18T09:08:35.529Z,48.13
2023-03-18T09:09:43.539Z,47.85
2023-03-18T09:10:36.538Z,48.77
2023-03-18T09:11:35.464Z,49.19
2023-03-18T09:12:35.456Z,49.57
2023-03-18T09:13:37.963Z,48.32
2023-03-18T09:14:35.424Z,47.96
2023-03-18T09:15:35.539Z,47.71
2023-03-18T09:16:35.453Z,45.70
2023-03-18T09:17:53.531Z,45.08
2023-03-18T09:18:36.404Z,45.06
2023-03-18T09:19:35.373Z,45.30
2023-03-18T09:20:35.494Z,46.72
2023-03-18T09:21:35.348Z,46.56
2023-03-18T09:22:35.366Z,47.71
2023-03-18T09:23:35.325Z,49.95
2023-03-18T09:24:35.310Z,48.35
2023-03-18T09:25:35.365Z,49.49
2023-03-18T09:26:35.309Z,49.79
2023-03-18T09:27:35.300Z,49.90
2023-03-18T09:28:35.317Z,49.90
2023-03-18T09:29:35.255Z,50.02
2023-03-18T09:30:35.428Z,50.22
2023-03-18T09:31:35.234Z,51.04
2023-03-18T09:32:35.282Z,51.44
2023-03-18T09:33:35.230Z,50.96
2023-03-18T09:34:35.207Z,51.32
2023-03-18T09:35:35.593Z,52.64
2023-03-18T09:36:35.198Z,53.52
2023-03-18T09:37:35.168Z,52.59
2023-03-18T09:38:35.162Z,52.22
2023-03-18T09:39:35.157Z,52.92
2023-03-18T09:40:37.862Z,52.89
2023-03-18T09:41:35.117Z,52.19
2023-03-18T09:42:35.351Z,51.64
2023-03-18T09:43:35.099Z,53.64
2023-03-18T09:44:35.107Z,52.72
2023-03-18T09:45:35.081Z,52.12
2023-03-18T09:46:35.160Z,51.94
2023-03-18T09:47:35.057Z,52.14
2023-03-18T09:48:35.035Z,52.17
2023-03-18T09:49:35.028Z,52.29
2023-03-18T09:50:35.027Z,52.69
2023-03-18T09:51:35.005Z,53.17
2023-03-18T09:52:34.996Z,53.34
2023-03-18T09:53:34.989Z,52.55
2023-03-18T09:54:34.967Z,51.72
2023-03-18T09:55:34.988Z,51.74
2023-03-18T09:56:34.947Z,52.47
2023-03-18T09:57:34.946Z,52.52
2023-03-18T09:58:34.929Z,51.92
2023-03-18T09:59:34.919Z,51.72
2023-03-18T10:00:34.933Z,52.24
2023-03-18T10:01:34.985Z,52.44
2023-03-18T10:02:34.895Z,52.59
2023-03-18T10:03:34.906Z,51.51
2023-03-18T10:04:34.872Z,51.74
2023-03-18T10:05:35.023Z,52.12
2023-03-18T10:06:34.832Z,52.49
2023-03-18T10:07:34.905Z,51.99
2023-03-18T10:08:36.310Z,52.07
2023-03-18T10:09:34.805Z,50.87
2023-03-18T10:10:34.782Z,50.49
2023-03-18T10:11:34.787Z,52.14
2023-03-18T10:12:34.781Z,52.34
2023-03-18T10:13:34.751Z,52.64
2023-03-18T10:14:36.287Z,53.02
2023-03-18T10:15:35.212Z,53.12
2023-03-18T10:16:34.712Z,52.47
2023-03-18T10:17:34.833Z,52.07
2023-03-18T10:18:34.733Z,51.64
2023-03-18T10:19:34.708Z,51.44
2023-03-18T10:20:34.674Z,50.14
2023-03-18T10:21:34.663Z,50.26
2023-03-18T10:22:34.761Z,51.62
2023-03-18T10:23:34.635Z,52.09
2023-03-18T10:24:34.663Z,52.42
2023-03-18T10:25:34.985Z,52.32
2023-03-18T10:26:34.591Z,51.79
2023-03-18T10:27:34.601Z,52.19
2023-03-18T10:28:34.575Z,51.74
2023-03-18T10:29:34.565Z,52.64
2023-03-18T10:30:34.599Z,52.14
2023-03-18T10:31:34.566Z,53.07
2023-03-18T10:32:48.733Z,52.57
2023-03-18T10:33:35.530Z,52.59
2023-03-18T10:34:34.507Z,53.39
2023-03-18T10:35:34.971Z,53.17
2023-03-18T10:36:34.507Z,52.64
2023-03-18T10:37:34.477Z,53.64
2023-03-18T10:38:34.470Z,52.55
2023-03-18T10:39:34.465Z,52.42
2023-03-18T10:40:34.438Z,52.29
2023-03-18T10:41:34.431Z,51.49
2023-03-18T10:42:34.430Z,51.59
2023-03-18T10:43:34.409Z,51.07
2023-03-18T10:44:34.428Z,51.27
2023-03-18T10:45:34.612Z,50.99
2023-03-18T10:46:34.476Z,51.51
2023-03-18T10:47:34.394Z,52.19
2023-03-18T10:48:34.347Z,52.32
2023-03-18T10:49:34.332Z,51.39
2023-03-18T10:50:34.989Z,52.37
2023-03-18T10:51:34.310Z,51.19
2023-03-18T10:52:34.291Z,52.27
2023-03-18T10:53:34.316Z,51.34
2023-03-18T10:54:34.270Z,51.12
2023-03-18T10:55:34.275Z,50.99
2023-03-18T10:56:34.252Z,50.67
2023-03-18T10:57:34.244Z,49.57
2023-03-18T10:58:34.261Z,50.22
2023-03-18T10:59:34.257Z,49.94
2023-03-18T11:00:34.575Z,51.87
2023-03-18T11:01:34.219Z,51.19
2023-03-18T11:02:34.232Z,51.79
2023-03-18T11:03:34.165Z,51.82
2023-03-18T11:04:34.404Z,52.09
2023-03-18T11:05:34.578Z,51.89
2023-03-18T11:06:34.136Z,51.59
2023-03-18T11:07:34.130Z,52.12
2023-03-18T11:08:34.106Z,52.01
2023-03-18T11:09:34.103Z,51.89
2023-03-18T11:10:34.537Z,50.59
2023-03-18T11:11:34.092Z,50.92
2023-03-18T11:12:34.064Z,51.64
2023-03-18T11:13:34.056Z,52.04
2023-03-18T11:14:34.055Z,52.22
2023-03-18T11:15:34.034Z,51.19
2023-03-18T11:16:34.121Z,51.72
2023-03-18T11:17:34.004Z,51.39
2023-03-18T11:18:33.993Z,50.69
2023-03-18T11:19:33.983Z,51.24
2023-03-18T11:20:34.213Z,51.72
2023-03-18T11:21:33.996Z,51.99
2023-03-18T11:22:33.974Z,51.37
2023-03-18T11:23:33.939Z,50.94
2023-03-18T11:24:33.918Z,50.32
2023-03-18T11:25:33.919Z,50.12
2023-03-18T11:26:33.896Z,50.59
2023-03-18T11:27:33.889Z,49.91
2023-03-18T11:28:33.917Z,49.22
2023-03-18T11:29:33.870Z,50.64
2023-03-18T11:30:35.003Z,50.64
2023-03-18T11:31:33.880Z,50.32
2023-03-18T11:32:33.868Z,50.24
2023-03-18T11:33:33.818Z,49.66
2023-03-18T11:34:33.837Z,50.57
2023-03-18T11:35:33.846Z,50.39
2023-03-18T11:36:33.777Z,51.21
2023-03-18T11:37:33.770Z,51.74
2023-03-18T11:38:33.772Z,51.44
2023-03-18T11:39:33.747Z,52.14
2023-03-18T11:40:33.988Z,51.92
2023-03-18T11:41:33.726Z,52.01
2023-03-18T11:42:33.715Z,51.49
2023-03-18T11:43:33.707Z,51.57
2023-03-18T11:44:33.714Z,51.14
2023-03-18T11:45:33.676Z,51.04
2023-03-18T11:46:33.694Z,50.39
2023-03-18T11:47:33.655Z,50.29
2023-03-18T11:48:33.635Z,50.20
2023-03-18T11:49:33.628Z,50.14
2023-03-18T11:50:33.916Z,50.46
2023-03-18T11:51:33.648Z,50.67
2023-03-18T11:52:33.599Z,50.46
2023-03-18T11:53:33.587Z,50.34
2023-03-18T11:54:33.578Z,49.74
2023-03-18T11:55:33.919Z,50.14
2023-03-18T11:56:33.570Z,50.54
2023-03-18T11:57:33.563Z,50.74
2023-03-18T11:58:33.518Z,49.72
2023-03-18T11:59:33.527Z,49.79
2023-03-18T12:00:33.535Z,48.92
2023-03-18T12:01:33.510Z,49.32
2023-03-18T12:02:33.509Z,49.62
2023-03-18T12:03:33.481Z,49.29
2023-03-18T12:04:33.537Z,48.45
2023-03-18T12:05:33.837Z,48.00
2023-03-18T12:06:33.445Z,46.08
2023-03-18T12:07:33.635Z,46.50
2023-03-18T12:08:33.443Z,47.13
2023-03-18T12:09:33.413Z,47.75
2023-03-18T12:10:33.681Z,48.45
2023-03-18T12:11:33.395Z,48.25
2023-03-18T12:12:33.371Z,48.67
2023-03-18T12:13:34.326Z,48.05
2023-03-18T12:14:33.360Z,47.63
2023-03-18T12:15:33.646Z,47.63
2023-03-18T12:16:33.361Z,47.49
2023-03-18T12:17:33.328Z,48.84
2023-03-18T12:18:33.310Z,49.66
2023-03-18T12:19:33.325Z,49.66
2023-03-18T12:20:33.435Z,49.94
2023-03-18T12:21:33.276Z,49.57
2023-03-18T12:22:33.257Z,50.07
2023-03-18T12:23:33.269Z,50.07
2023-03-18T12:24:33.237Z,50.04
2023-03-18T12:25:33.256Z,49.44
2023-03-18T12:26:33.224Z,49.64
2023-03-18T12:27:33.216Z,48.92
2023-03-18T12:28:33.184Z,49.24
2023-03-18T12:29:33.186Z,49.22
2023-03-18T12:30:33.486Z,48.84
2023-03-18T12:31:33.285Z,49.54
2023-03-18T12:32:33.183Z,49.44
2023-03-18T12:33:33.140Z,48.74
2023-03-18T12:34:33.126Z,49.26
2023-03-18T12:35:33.345Z,48.34
2023-03-18T12:36:33.115Z,48.74
2023-03-18T12:37:33.114Z,48.74
2023-03-18T12:38:33.086Z,48.52
2023-03-18T12:39:33.070Z,48.39
2023-03-18T12:40:33.390Z,49.19
2023-03-18T12:41:34.372Z,48.90
2023-03-18T12:42:33.072Z,48.67
2023-03-18T12:43:33.028Z,47.77
2023-03-18T12:44:33.016Z,48.05
2023-03-18T12:45:33.213Z,47.63
2023-03-18T12:46:33.003Z,46.80
2023-03-18T12:47:33.704Z,46.50
2023-03-18T12:48:43.648Z,46.53
2023-03-18T12:49:33.980Z,47.22
2023-03-18T12:50:32.957Z,46.33
2023-03-18T12:51:32.937Z,46.77
2023-03-18T12:52:32.930Z,46.80